createdAt,value
2022-11-20T00:02:00.517Z,271.00
2022-11-20T00:04:32.125Z,272.50
2022-11-20T00:07:03.727Z,256.50
2022-11-20T00:09:35.410Z,341.20
2022-11-20T00:12:08.020Z,410.40
2022-11-20T00:14:39.777Z,434.20
2022-11-20T00:17:11.275Z,380.00
2022-11-20T00:19:42.816Z,345.00
2022-11-20T00:22:14.326Z,293.60
2022-11-20T00:24:45.842Z,217.80
2022-11-20T00:27:17.424Z,199.40
2022-11-20T00:29:48.870Z,174.10
2022-11-20T00:32:20.384Z,156.20
2022-11-20T00:34:51.921Z,159.40
2022-11-20T00:37:23.631Z,144.40
2022-11-20T00:39:55.125Z,144.10
2022-11-20T00:42:26.671Z,136.80
2022-11-20T00:44:58.326Z,130.80
2022-11-20T00:47:29.879Z,136.70
2022-11-20T00:50:01.403Z,130.30
2022-11-20T00:52:32.952Z,132.10
2022-11-20T00:55:04.723Z,136.00
2022-11-20T00:57:36.378Z,123.90
2022-11-20T01:00:11.767Z,123.00
2022-11-20T01:02:43.245Z,144.60
2022-11-20T01:05:14.948Z,147.90
2022-11-20T01:07:46.520Z,159.90
2022-11-20T01:10:18.320Z,167.20
2022-11-20T01:13:09.761Z,157.50
2022-11-20T01:15:41.315Z,148.80
2022-11-20T01:18:12.784Z,158.30
2022-11-20T01:20:44.231Z,159.30
2022-11-20T01:23:15.724Z,171.70
2022-11-20T01:25:47.211Z,175.70
2022-11-20T01:28:18.777Z,171.40
2022-11-20T01:30:50.251Z,178.10
2022-11-20T01:33:21.803Z,175.00
2022-11-20T01:35:53.490Z,183.50
2022-11-20T01:38:25.017Z,182.10
2022-11-20T01:40:59.747Z,176.50
2022-11-20T01:43:31.597Z,173.20
2022-11-20T01:46:16.186Z,172.60
2022-11-20T01:48:55.494Z,169.00
2022-11-20T01:51:34.359Z,180.40
2022-11-20T01:54:08.593Z,183.40
2022-11-20T01:56:44.433Z,179.10
2022-11-20T01:59:18.294Z,180.50
2022-11-20T02:01:50.539Z,179.70
2022-11-20T02:04:24.344Z,186.50
2022-11-20T02:07:01.937Z,192.30
2022-11-20T02:09:33.586Z,184.60
2022-11-20T02:12:05.899Z,190.40
2022-11-20T02:14:37.415Z,192.30
2022-11-20T02:17:20.879Z,154.80
2022-11-20T02:19:53.187Z,161.00
2022-11-20T02:22:30.632Z,154.80
2022-11-20T02:25:04.257Z,164.30
2022-11-20T02:27:36.348Z,157.40
2022-11-20T02:30:11.968Z,147.60
2022-11-20T02:32:44.081Z,150.50
2022-11-20T02:35:47.993Z,140.50
2022-11-20T02:40:55.169Z,153.10
2022-11-20T02:43:27.457Z,146.70
2022-11-20T02:45:58.944Z,139.40
2022-11-20T02:48:33.814Z,144.70
2022-11-20T02:51:06.425Z,140.80
2022-11-20T02:53:37.891Z,141.00
2022-11-20T02:56:10.687Z,142.30
2022-11-20T02:58:42.173Z,156.50
2022-11-20T03:01:13.780Z,170.30
2022-11-20T03:03:45.349Z,165.30
2022-11-20T03:06:17.566Z,160.90
2022-11-20T03:08:49.164Z,169.00
2022-11-20T03:11:20.928Z,166.20
2022-11-20T03:13:52.417Z,169.30
2022-11-20T03:16:26.076Z,166.40
2022-11-20T03:18:57.547Z,171.80
2022-11-20T03:21:29.092Z,153.40
2022-11-20T03:24:00.689Z,159.70
2022-11-20T03:26:32.812Z,150.90
2022-11-20T03:29:06.416Z,159.80
2022-11-20T03:31:41.341Z,166.30
2022-11-20T03:34:13.876Z,162.10
2022-11-20T03:36:47.205Z,165.70
2022-11-20T03:39:18.848Z,155.90
2022-11-20T03:41:50.577Z,166.50
2022-11-20T03:44:24.750Z,161.90
2022-11-20T03:46:56.261Z,160.80
2022-11-20T03:49:27.824Z,171.00
2022-11-20T03:51:59.314Z,156.90
2022-11-20T03:54:30.856Z,152.90
2022-11-20T03:57:02.415Z,149.80
2022-11-20T03:59:33.988Z,144.40
2022-11-20T04:02:05.581Z,143.90
2022-11-20T04:04:37.236Z,126.90
2022-11-20T04:07:08.767Z,120.90
2022-11-20T04:09:40.228Z,121.20
2022-11-20T04:12:11.773Z,132.20
2022-11-20T04:14:43.277Z,127.90
2022-11-20T04:17:14.768Z,124.40
2022-11-20T04:19:46.282Z,123.90
2022-11-20T04:22:17.866Z,122.20
2022-11-20T04:24:49.387Z,113.10
2022-11-20T04:27:20.932Z,116.60
2022-11-20T04:29:52.515Z,124.80
2022-11-20T04:32:24.004Z,137.10
2022-11-20T04:34:55.523Z,125.70
2022-11-20T04:37:27.016Z,125.20
2022-11-20T04:39:59.012Z,127.50
2022-11-20T04:42:30.591Z,128.20
2022-11-20T04:45:02.180Z,137.10
2022-11-20T04:47:33.798Z,132.10
2022-11-20T04:50:06.116Z,126.70
2022-11-20T04:52:37.979Z,132.40
2022-11-20T04:55:10.739Z,127.80
2022-11-20T04:57:42.331Z,129.00
2022-11-20T05:00:16.592Z,135.40
2022-11-20T05:02:48.229Z,126.10
2022-11-20T05:05:20.364Z,128.10
2022-11-20T05:07:51.854Z,121.30
2022-11-20T05:10:23.336Z,122.20
2022-11-20T05:12:55.356Z,128.50
2022-11-20T05:15:27.171Z,120.50
2022-11-20T05:17:58.777Z,108.60
2022-11-20T05:20:30.647Z,118.60
2022-11-20T05:23:02.217Z,119.00
2022-11-20T05:25:33.839Z,117.20
2022-11-20T05:28:05.749Z,103.80
2022-11-20T05:30:37.271Z,98.90
2022-11-20T05:33:09.808Z,105.60
2022-11-20T05:35:41.378Z,102.20
2022-11-20T05:38:13.025Z,99.00
2022-11-20T05:40:44.563Z,104.40
2022-11-20T05:43:16.100Z,102.00
2022-11-20T05:45:55.918Z,100.80
2022-11-20T05:48:27.649Z,106.90
2022-11-20T05:51:00.652Z,100.00
2022-11-20T05:53:33.999Z,101.30
2022-11-20T05:56:08.195Z,106.40
2022-11-20T05:58:40.944Z,96.90
2022-11-20T06:01:16.160Z,101.70
2022-11-20T06:03:48.810Z,94.40
2022-11-20T06:06:21.417Z,92.50
2022-11-20T06:08:53.097Z,108.00
2022-11-20T06:11:24.816Z,111.90
2022-11-20T06:13:56.363Z,113.10
2022-11-20T06:16:27.919Z,130.00
2022-11-20T06:18:59.434Z,125.00
2022-11-20T06:21:31.406Z,137.10
2022-11-20T06:24:02.890Z,130.60
2022-11-20T06:26:34.549Z,123.00
2022-11-20T06:29:06.305Z,118.60
2022-11-20T06:31:38.713Z,134.30
2022-11-20T06:34:10.727Z,121.50
2022-11-20T06:36:42.295Z,130.90
2022-11-20T06:39:14.243Z,133.00
2022-11-20T06:41:45.770Z,132.90
2022-11-20T06:44:17.288Z,125.30
2022-11-20T06:46:48.922Z,133.70
2022-11-20T06:49:21.014Z,134.60
2022-11-20T06:51:52.878Z,152.10
2022-11-20T06:54:24.541Z,144.70
2022-11-20T06:56:56.152Z,195.20
2022-11-20T06:59:27.709Z,190.90
2022-11-20T07:01:59.187Z,159.70
2022-11-20T07:04:30.869Z,166.00
2022-11-20T07:07:02.443Z,245.80
2022-11-20T07:09:34.631Z,137.30
2022-11-20T07:12:07.025Z,157.30
2022-11-20T07:14:38.523Z,639.90
2022-11-20T07:17:10.249Z,482.80
2022-11-20T07:19:41.765Z,224.40
2022-11-20T07:22:14.094Z,237.50
2022-11-20T07:24:46.267Z,223.90
2022-11-20T07:27:17.884Z,157.80
2022-11-20T07:29:49.437Z,186.60
2022-11-20T07:32:20.930Z,231.10
2022-11-20T07:34:52.629Z,406.70
2022-11-20T07:37:24.461Z,265.70
2022-11-20T07:39:56.043Z,164.20
2022-11-20T07:42:27.741Z,184.20
2022-11-20T07:44:59.333Z,164.80
2022-11-20T07:47:30.810Z,161.80
2022-11-20T07:50:02.565Z,138.80
2022-11-20T07:52:34.167Z,140.50
2022-11-20T07:55:07.005Z,142.60
2022-11-20T07:57:38.545Z,146.10
2022-11-20T08:00:13.408Z,141.80
2022-11-20T08:02:45.342Z,142.00
2022-11-20T08:05:17.007Z,162.10
2022-11-20T08:07:48.605Z,134.50
2022-11-20T08:10:20.732Z,124.00
2022-11-20T08:13:11.903Z,116.80
2022-11-20T08:15:43.846Z,129.10
2022-11-20T08:18:30.439Z,180.60
2022-11-20T08:21:06.079Z,150.00
2022-11-20T08:23:37.568Z,161.20
2022-11-20T08:26:09.419Z,158.50
2022-11-20T08:28:41.109Z,156.80
2022-11-20T08:31:12.637Z,151.40
2022-11-20T08:33:44.120Z,152.80
2022-11-20T08:36:15.819Z,130.10
2022-11-20T08:38:50.723Z,127.90
2022-11-20T08:41:26.527Z,123.30
2022-11-20T08:44:00.224Z,116.90
2022-11-20T08:46:36.355Z,117.10
2022-11-20T08:49:09.423Z,121.60
2022-11-20T08:51:41.848Z,117.70
2022-11-20T08:54:13.280Z,114.10
2022-11-20T08:56:44.892Z,108.90
2022-11-20T08:59:31.215Z,116.90
2022-11-20T09:02:07.986Z,103.00
2022-11-20T09:04:39.524Z,104.00
2022-11-20T09:07:11.137Z,102.80
2022-11-20T09:09:42.663Z,104.00
2022-11-20T09:12:14.733Z,98.70
2022-11-20T09:14:48.757Z,95.10
2022-11-20T09:17:23.811Z,91.20
2022-11-20T09:19:55.299Z,86.80
2022-11-20T09:22:26.820Z,90.40
2022-11-20T09:24:59.345Z,85.00
2022-11-20T09:27:30.863Z,91.10
2022-11-20T09:30:02.322Z,99.50
2022-11-20T09:32:33.855Z,100.70
2022-11-20T09:35:06.093Z,95.80
2022-11-20T09:37:37.777Z,95.60
2022-11-20T09:40:19.442Z,104.60
2022-11-20T09:42:59.522Z,104.80
2022-11-20T09:45:52.057Z,96.30
2022-11-20T09:48:38.308Z,99.30
2022-11-20T09:51:23.108Z,93.30
2022-11-20T09:54:09.098Z,88.60
2022-11-20T09:56:44.695Z,81.10
2022-11-20T09:59:31.235Z,90.70
2022-11-20T10:02:04.959Z,105.70
2022-11-20T10:04:41.733Z,97.30
2022-11-20T10:07:34.963Z,81.30
2022-11-20T10:10:07.323Z,108.80
2022-11-20T10:12:56.855Z,105.70
2022-11-20T10:15:41.084Z,106.00
2022-11-20T10:18:35.385Z,98.80
2022-11-20T10:21:16.113Z,90.20
2022-11-20T10:24:24.994Z,92.00
2022-11-20T10:27:06.811Z,98.00
2022-11-20T10:29:42.639Z,94.50
2022-11-20T10:32:19.305Z,88.80
2022-11-20T10:34:57.224Z,90.10
2022-11-20T10:37:31.025Z,87.00
2022-11-20T10:40:17.047Z,101.00
2022-11-20T10:42:52.733Z,98.50
2022-11-20T10:45:38.039Z,96.40
2022-11-20T10:48:21.375Z,101.00
2022-11-20T10:51:04.175Z,94.40
2022-11-20T10:54:00.096Z,82.90
2022-11-20T10:56:39.929Z,88.10
2022-11-20T10:59:36.407Z,83.10
2022-11-20T11:02:20.900Z,89.20
2022-11-20T11:04:53.752Z,86.40
2022-11-20T11:07:29.882Z,76.20
2022-11-20T11:10:01.393Z,88.90
2022-11-20T11:12:32.945Z,91.90
2022-11-20T11:15:04.881Z,90.70
2022-11-20T11:17:37.424Z,77.40
2022-11-20T11:20:19.286Z,86.50
2022-11-20T11:22:54.153Z,77.40
2022-11-20T11:25:29.068Z,91.90
2022-11-20T11:28:03.968Z,97.70
2022-11-20T11:30:49.471Z,100.40
2022-11-20T11:33:25.900Z,93.20
2022-11-20T11:35:59.691Z,84.20
2022-11-20T11:38:37.301Z,75.70
2022-11-20T11:41:14.685Z,83.90
2022-11-20T11:44:13.483Z,75.10
2022-11-20T11:46:52.712Z,86.90
2022-11-20T11:49:24.954Z,71.20
2022-11-20T11:52:15.831Z,79.20
2022-11-20T11:54:53.183Z,73.00
2022-11-20T11:57:31.612Z,70.10
2022-11-20T12:00:08.936Z,72.50
2022-11-20T12:02:51.075Z,71.20
2022-11-20T12:05:26.517Z,85.60
2022-11-20T12:08:06.950Z,83.90
2022-11-20T12:10:48.392Z,72.50
2022-11-20T12:13:34.860Z,68.80
2022-11-20T12:16:13.160Z,72.70
2022-11-20T12:18:45.664Z,64.60
2022-11-20T12:21:26.722Z,63.10
2022-11-20T12:24:08.961Z,63.60
2022-11-20T16:02:18.969Z,85.20
2022-11-20T16:04:51.112Z,102.60
2022-11-20T16:07:22.675Z,88.00
2022-11-20T16:09:55.752Z,81.90
2022-11-20T16:12:45.166Z,92.30
2022-11-20T16:15:34.319Z,87.80
2022-11-20T16:18:05.960Z,88.00
2022-11-20T16:20:38.105Z,92.00
2022-11-20T16:23:10.123Z,96.40
2022-11-20T16:25:41.600Z,94.60
2022-11-20T16:28:18.429Z,99.90
2022-11-20T16:30:50.672Z,110.30
2022-11-20T16:33:22.171Z,111.60
2022-11-20T16:35:53.706Z,120.30
2022-11-20T16:38:25.246Z,121.10
2022-11-20T16:41:03.657Z,108.90
2022-11-20T16:43:35.167Z,111.10
2022-11-20T16:46:07.698Z,111.80
2022-11-20T16:48:39.259Z,115.10
2022-11-20T16:51:13.720Z,122.80
2022-11-20T16:53:45.207Z,115.20
2022-11-20T16:56:18.260Z,115.60
2022-11-20T16:58:51.245Z,119.50
2022-11-20T17:01:24.822Z,115.50
2022-11-20T17:04:01.104Z,114.30
2022-11-20T17:06:34.631Z,133.80
2022-11-20T17:11:37.217Z,116.40
2022-11-20T17:14:09.060Z,120.50
2022-11-20T17:16:41.101Z,120.20
2022-11-20T17:19:12.881Z,119.80
2022-11-20T17:21:44.554Z,122.00
2022-11-20T17:24:17.046Z,125.70
2022-11-20T17:26:49.736Z,116.90
2022-11-20T17:29:24.371Z,128.50
2022-11-20T17:31:56.369Z,134.60
2022-11-20T17:34:27.852Z,127.70
2022-11-20T17:36:59.348Z,113.10
2022-11-20T17:39:31.117Z,109.40
2022-11-20T17:42:20.210Z,122.70
2022-11-20T17:44:51.684Z,111.50
2022-11-20T17:47:23.255Z,119.50
2022-11-20T17:49:55.485Z,116.40
2022-11-20T17:52:27.088Z,110.40
2022-11-20T17:54:58.729Z,112.80
2022-11-20T17:57:48.216Z,125.20
2022-11-20T18:00:21.022Z,128.80
2022-11-20T18:02:52.522Z,140.10
2022-11-20T18:05:23.971Z,147.10
2022-11-20T18:07:56.426Z,136.90
2022-11-20T18:10:29.885Z,130.50
2022-11-20T18:15:31.382Z,138.60
2022-11-20T18:18:03.053Z,134.30
2022-11-20T18:20:39.601Z,138.00
2022-11-20T18:23:11.818Z,136.50
2022-11-20T18:25:46.496Z,144.00
2022-11-20T18:28:19.821Z,145.60
2022-11-20T18:30:51.328Z,171.30
2022-11-20T18:33:28.146Z,173.90
2022-11-20T18:36:00.118Z,165.00
2022-11-20T18:38:31.669Z,158.90
2022-11-20T18:41:03.919Z,153.30
2022-11-20T18:43:55.758Z,154.90
2022-11-20T18:46:27.466Z,155.00
2022-11-20T18:48:59.325Z,146.10
2022-11-20T18:51:30.805Z,218.70
2022-11-20T18:54:02.356Z,185.00
2022-11-20T18:56:34.553Z,168.90
2022-11-20T18:59:07.385Z,213.50
2022-11-20T19:01:39.594Z,155.50
2022-11-20T19:04:12.884Z,155.50
2022-11-20T19:06:45.860Z,137.60
2022-11-20T19:09:17.664Z,148.30
2022-11-20T19:11:49.273Z,127.00
2022-11-20T19:14:21.050Z,108.70
2022-11-20T19:16:52.840Z,104.00
2022-11-20T19:19:24.566Z,114.20
2022-11-20T19:21:56.332Z,114.30
2022-11-20T19:24:28.696Z,121.50
2022-11-20T19:27:01.190Z,124.00
2022-11-20T19:29:32.743Z,137.90
2022-11-20T19:32:04.983Z,145.20
2022-11-20T19:34:36.666Z,143.30
2022-11-20T19:37:08.211Z,137.00
2022-11-20T19:39:40.215Z,135.10
2022-11-20T19:42:11.861Z,141.30
2022-11-20T19:44:44.441Z,144.30
2022-11-20T19:47:15.963Z,150.30
2022-11-20T19:49:47.536Z,143.70
2022-11-20T19:52:19.116Z,150.00
2022-11-20T19:54:50.601Z,154.10
2022-11-20T19:57:22.060Z,141.40
2022-11-20T19:59:53.540Z,139.90
2022-11-20T20:02:25.165Z,155.80
2022-11-20T20:04:56.654Z,166.60
2022-11-20T20:07:28.129Z,165.50
2022-11-20T20:09:59.716Z,161.40
2022-11-20T20:12:31.309Z,168.20
2022-11-20T20:15:02.802Z,173.50
2022-11-20T20:17:34.422Z,169.50
2022-11-20T20:20:07.419Z,156.80
2022-11-20T20:22:38.916Z,160.80
2022-11-20T20:25:11.149Z,150.60
2022-11-20T20:27:42.677Z,153.00
2022-11-20T20:30:16.161Z,132.50
2022-11-20T20:32:56.245Z,125.90
2022-11-20T20:35:28.156Z,117.50
2022-11-20T20:38:00.137Z,127.20
2022-11-20T20:40:48.845Z,129.20
2022-11-20T20:43:20.663Z,138.30
2022-11-20T20:45:53.040Z,131.10
2022-11-20T20:48:26.023Z,131.70
2022-11-20T20:50:59.029Z,134.90
2022-11-20T20:53:33.111Z,149.60
2022-11-20T20:56:05.516Z,167.10
2022-11-20T20:58:37.128Z,163.40
2022-11-20T21:01:10.570Z,177.10
2022-11-20T21:06:13.576Z,166.20
2022-11-20T21:08:45.216Z,172.30
2022-11-20T21:11:19.026Z,171.40
2022-11-20T21:13:50.911Z,180.60
2022-11-20T21:16:25.057Z,190.10
2022-11-20T21:18:56.551Z,176.40
2022-11-20T21:21:45.759Z,176.40
2022-11-20T21:24:17.259Z,168.80
2022-11-20T21:26:49.592Z,163.10
2022-11-20T21:29:21.093Z,166.80
2022-11-20T21:31:54.133Z,171.40
2022-11-20T21:34:26.629Z,175.70
2022-11-20T21:36:58.376Z,169.20
2022-11-20T21:39:30.608Z,164.00
2022-11-20T21:42:02.108Z,158.30
2022-11-20T21:44:33.776Z,158.30
2022-11-20T21:47:05.433Z,162.90
2022-11-20T21:49:36.900Z,164.70
2022-11-20T21:52:08.611Z,155.50
2022-11-20T21:54:40.768Z,153.10
2022-11-20T21:57:12.345Z,134.40
2022-11-20T21:59:43.988Z,132.40
2022-11-20T22:02:16.345Z,131.00
2022-11-20T22:04:47.894Z,132.30
2022-11-20T22:07:19.431Z,143.00
2022-11-20T22:09:51.269Z,132.00
2022-11-20T22:12:22.904Z,124.60
2022-11-20T22:14:54.501Z,136.10
2022-11-20T22:17:39.859Z,153.70
2022-11-20T22:20:13.104Z,157.80
2022-11-20T22:22:44.919Z,161.50
2022-11-20T22:25:16.831Z,165.00
2022-11-20T22:27:49.901Z,157.10
2022-11-20T22:30:21.398Z,172.80
2022-11-20T22:32:54.153Z,168.70
2022-11-20T22:35:25.651Z,165.70
2022-11-20T22:38:08.977Z,176.70
2022-11-20T22:40:40.655Z,179.70
2022-11-20T22:43:12.184Z,173.80
2022-11-20T22:45:50.085Z,176.60
2022-11-20T22:48:22.704Z,178.90
2022-11-20T22:51:05.387Z,188.60
2022-11-20T22:53:42.250Z,187.10
2022-11-20T22:56:20.285Z,186.10
2022-11-20T22:58:59.226Z,213.80
2022-11-20T23:01:34.379Z,222.00
2022-11-20T23:04:09.077Z,257.50
2022-11-20T23:06:40.817Z,209.00
2022-11-20T23:09:12.914Z,192.60
2022-11-20T23:11:48.890Z,190.20
2022-11-20T23:14:27.552Z,192.80
2022-11-20T23:17:00.497Z,196.30
2022-11-20T23:19:32.018Z,182.30
2022-11-20T23:22:03.793Z,170.80
2022-11-20T23:24:35.293Z,170.10
2022-11-20T23:27:06.956Z,170.60
2022-11-20T23:29:38.432Z,167.80
2022-11-20T23:32:10.020Z,168.90
2022-11-20T23:34:41.544Z,163.60
2022-11-20T23:37:13.047Z,159.00
2022-11-20T23:39:44.600Z,179.70
2022-11-20T23:42:16.103Z,178.80
2022-11-20T23:44:47.564Z,169.10
2022-11-20T23:47:19.026Z,195.50
2022-11-20T23:49:50.543Z,180.90
2022-11-20T23:52:22.207Z,179.10
2022-11-20T23:54:53.681Z,182.90
2022-11-20T23:57:25.144Z,187.80
2022-11-20T23:59:56.635Z,188.30
